sensor_id;sensor_type;location;lat;lon;timestamp;P1;durP1;ratioP1;P2;durP2;ratioP2
12812;SDS011;6471;50.932;6.934;2022-08-30T00:00:40;1.97;;;1.50;;
12812;SDS011;6471;50.932;6.934;2022-08-30T00:03:26;2.30;;;1.67;;
12812;SDS011;6471;50.932;6.934;2022-08-30T00:05:52;1.53;;;1.40;;
12812;SDS011;6471;50.932;6.934;2022-08-30T00:08:18;2.10;;;1.50;;
12812;SDS011;6471;50.932;6.934;2022-08-30T00:10:44;2.10;;;1.63;;
12812;SDS011;6471;50.932;6.934;2022-08-30T00:13:11;2.50;;;1.70;;
12812;SDS011;6471;50.932;6.934;2022-08-30T00:15:38;1.60;;;1.40;;
12812;SDS011;6471;50.932;6.934;2022-08-30T00:18:04;1.67;;;1.40;;
12812;SDS011;6471;50.932;6.934;2022-08-30T00:20:31;2.50;;;1.37;;
12812;SDS011;6471;50.932;6.934;2022-08-30T00:22:57;3.80;;;1.57;;
12812;SDS011;6471;50.932;6.934;2022-08-30T00:25:23;1.40;;;1.30;;
12812;SDS011;6471;50.932;6.934;2022-08-30T00:27:49;1.77;;;1.50;;
12812;SDS011;6471;50.932;6.934;2022-08-30T00:30:16;1.80;;;1.53;;
12812;SDS011;6471;50.932;6.934;2022-08-30T00:32:42;1.53;;;1.30;;
12812;SDS011;6471;50.932;6.934;2022-08-30T00:35:09;1.50;;;1.40;;
12812;SDS011;6471;50.932;6.934;2022-08-30T00:37:35;2.37;;;1.50;;
12812;SDS011;6471;50.932;6.934;2022-08-30T00:40:03;1.80;;;1.40;;
12812;SDS011;6471;50.932;6.934;2022-08-30T00:42:30;1.70;;;1.30;;
12812;SDS011;6471;50.932;6.934;2022-08-30T00:44:56;1.70;;;1.40;;
12812;SDS011;6471;50.932;6.934;2022-08-30T00:47:22;1.47;;;1.30;;
12812;SDS011;6471;50.932;6.934;2022-08-30T00:49:49;1.53;;;1.40;;
12812;SDS011;6471;50.932;6.934;2022-08-30T00:52:16;1.57;;;1.20;;
12812;SDS011;6471;50.932;6.934;2022-08-30T00:54:43;2.00;;;1.40;;
12812;SDS011;6471;50.932;6.934;2022-08-30T00:57:11;1.53;;;1.33;;
12812;SDS011;6471;50.932;6.934;2022-08-30T00:59:38;1.43;;;1.23;;
12812;SDS011;6471;50.932;6.934;2022-08-30T01:02:05;1.57;;;1.30;;
12812;SDS011;6471;50.932;6.934;2022-08-30T01:04:31;2.40;;;1.60;;
12812;SDS011;6471;50.932;6.934;2022-08-30T01:06:58;1.53;;;1.40;;
12812;SDS011;6471;50.932;6.934;2022-08-30T01:09:24;1.90;;;1.50;;
12812;SDS011;6471;50.932;6.934;2022-08-30T01:11:51;1.80;;;1.40;;
12812;SDS011;6471;50.932;6.934;2022-08-30T01:14:17;1.40;;;1.30;;
12812;SDS011;6471;50.932;6.934;2022-08-30T01:16:46;1.60;;;1.40;;
12812;SDS011;6471;50.932;6.934;2022-08-30T01:19:19;1.93;;;1.50;;
12812;SDS011;6471;50.932;6.934;2022-08-30T01:21:50;1.63;;;1.30;;
12812;SDS011;6471;50.932;6.934;2022-08-30T01:24:19;1.50;;;1.23;;
12812;SDS011;6471;50.932;6.934;2022-08-30T01:26:45;1.50;;;1.23;;
12812;SDS011;6471;50.932;6.934;2022-08-30T01:29:12;1.67;;;1.37;;
12812;SDS011;6471;50.932;6.934;2022-08-30T01:31:39;1.50;;;1.30;;
12812;SDS011;6471;50.932;6.934;2022-08-30T01:34:06;2.70;;;1.30;;
12812;SDS011;6471;50.932;6.934;2022-08-30T01:36:33;1.30;;;1.20;;
12812;SDS011;6471;50.932;6.934;2022-08-30T01:39:00;1.53;;;1.30;;
12812;SDS011;6471;50.932;6.934;2022-08-30T01:41:31;1.70;;;1.30;;
12812;SDS011;6471;50.932;6.934;2022-08-30T01:43:59;1.57;;;1.30;;
12812;SDS011;6471;50.932;6.934;2022-08-30T01:46:27;1.30;;;1.20;;
12812;SDS011;6471;50.932;6.934;2022-08-30T01:48:54;1.60;;;1.30;;
12812;SDS011;6471;50.932;6.934;2022-08-30T01:51:22;1.53;;;1.30;;
12812;SDS011;6471;50.932;6.934;2022-08-30T01:53:48;1.23;;;1.13;;
12812;SDS011;6471;50.932;6.934;2022-08-30T01:56:14;1.50;;;1.20;;
12812;SDS011;6471;50.932;6.934;2022-08-30T01:58:40;1.40;;;1.20;;
12812;SDS011;6471;50.932;6.934;2022-08-30T02:01:07;1.43;;;1.20;;
12812;SDS011;6471;50.932;6.934;2022-08-30T02:03:36;1.60;;;1.33;;
12812;SDS011;6471;50.932;6.934;2022-08-30T02:06:03;2.23;;;1.67;;
12812;SDS011;6471;50.932;6.934;2022-08-30T02:08:29;1.50;;;1.40;;
12812;SDS011;6471;50.932;6.934;2022-08-30T02:10:55;1.50;;;1.40;;
12812;SDS011;6471;50.932;6.934;2022-08-30T02:13:23;1.70;;;1.40;;
12812;SDS011;6471;50.932;6.934;2022-08-30T02:15:49;1.97;;;1.63;;
12812;SDS011;6471;50.932;6.934;2022-08-30T02:18:15;1.30;;;1.20;;
12812;SDS011;6471;50.932;6.934;2022-08-30T02:20:41;1.77;;;1.40;;
12812;SDS011;6471;50.932;6.934;2022-08-30T02:23:07;1.70;;;1.30;;
12812;SDS011;6471;50.932;6.934;2022-08-30T02:25:33;1.87;;;1.37;;
12812;SDS011;6471;50.932;6.934;2022-08-30T02:27:59;1.27;;;1.17;;
12812;SDS011;6471;50.932;6.934;2022-08-30T02:30:25;1.80;;;1.53;;
12812;SDS011;6471;50.932;6.934;2022-08-30T02:32:51;1.80;;;1.50;;
12812;SDS011;6471;50.932;6.934;2022-08-30T02:35:17;1.50;;;1.40;;
12812;SDS011;6471;50.932;6.934;2022-08-30T02:37:44;1.40;;;1.30;;
12812;SDS011;6471;50.932;6.934;2022-08-30T02:40:10;1.50;;;1.30;;
12812;SDS011;6471;50.932;6.934;2022-08-30T02:42:36;1.80;;;1.53;;
12812;SDS011;6471;50.932;6.934;2022-08-30T02:45:02;1.80;;;1.60;;
12812;SDS011;6471;50.932;6.934;2022-08-30T02:47:28;1.80;;;1.53;;
12812;SDS011;6471;50.932;6.934;2022-08-30T02:49:54;1.50;;;1.40;;
12812;SDS011;6471;50.932;6.934;2022-08-30T02:52:21;1.40;;;1.30;;
12812;SDS011;6471;50.932;6.934;2022-08-30T02:54:47;1.80;;;1.37;;
12812;SDS011;6471;50.932;6.934;2022-08-30T02:57:13;2.10;;;1.40;;
12812;SDS011;6471;50.932;6.934;2022-08-30T02:59:39;1.60;;;1.50;;
12812;SDS011;6471;50.932;6.934;2022-08-30T03:02:09;2.07;;;1.60;;
12812;SDS011;6471;50.932;6.934;2022-08-30T03:04:35;2.27;;;1.90;;
12812;SDS011;6471;50.932;6.934;2022-08-30T03:07:03;2.63;;;1.93;;
12812;SDS011;6471;50.932;6.934;2022-08-30T03:09:29;2.40;;;1.70;;
12812;SDS011;6471;50.932;6.934;2022-08-30T03:11:55;2.30;;;1.80;;
12812;SDS011;6471;50.932;6.934;2022-08-30T03:14:21;1.97;;;1.70;;
12812;SDS011;6471;50.932;6.934;2022-08-30T03:16:48;3.03;;;1.70;;
12812;SDS011;6471;50.932;6.934;2022-08-30T03:19:14;3.03;;;2.07;;
12812;SDS011;6471;50.932;6.934;2022-08-30T03:21:40;2.33;;;2.00;;
12812;SDS011;6471;50.932;6.934;2022-08-30T03:24:06;2.40;;;1.77;;
12812;SDS011;6471;50.932;6.934;2022-08-30T03:26:33;2.20;;;1.80;;
12812;SDS011;6471;50.932;6.934;2022-08-30T03:28:59;2.87;;;2.00;;
12812;SDS011;6471;50.932;6.934;2022-08-30T03:31:26;2.23;;;1.93;;
12812;SDS011;6471;50.932;6.934;2022-08-30T03:33:52;2.80;;;1.70;;
12812;SDS011;6471;50.932;6.934;2022-08-30T03:36:18;2.13;;;1.80;;
12812;SDS011;6471;50.932;6.934;2022-08-30T03:38:45;2.97;;;1.77;;
12812;SDS011;6471;50.932;6.934;2022-08-30T03:41:11;2.30;;;1.90;;
12812;SDS011;6471;50.932;6.934;2022-08-30T03:43:37;2.90;;;1.80;;
12812;SDS011;6471;50.932;6.934;2022-08-30T03:46:03;2.93;;;1.90;;
12812;SDS011;6471;50.932;6.934;2022-08-30T03:48:30;2.03;;;1.70;;
12812;SDS011;6471;50.932;6.934;2022-08-30T03:50:56;2.37;;;1.80;;
12812;SDS011;6471;50.932;6.934;2022-08-30T03:53:22;2.13;;;1.60;;
12812;SDS011;6471;50.932;6.934;2022-08-30T03:55:48;1.90;;;1.70;;
12812;SDS011;6471;50.932;6.934;2022-08-30T03:58:14;1.90;;;1.70;;
12812;SDS011;6471;50.932;6.934;2022-08-30T04:00:40;3.13;;;1.93;;
12812;SDS011;6471;50.932;6.934;2022-08-30T04:03:06;1.67;;;1.57;;
12812;SDS011;6471;50.932;6.934;2022-08-30T04:05:33;2.37;;;1.87;;
12812;SDS011;6471;50.932;6.934;2022-08-30T04:07:59;1.80;;;1.50;;
12812;SDS011;6471;50.932;6.934;2022-08-30T04:10:25;1.60;;;1.50;;
12812;SDS011;6471;50.932;6.934;2022-08-30T04:12:51;1.83;;;1.60;;
12812;SDS011;6471;50.932;6.934;2022-08-30T04:15:18;1.60;;;1.50;;
12812;SDS011;6471;50.932;6.934;2022-08-30T04:17:44;1.90;;;1.60;;
12812;SDS011;6471;50.932;6.934;2022-08-30T04:20:10;1.90;;;1.40;;
12812;SDS011;6471;50.932;6.934;2022-08-30T04:22:36;2.10;;;1.40;;
12812;SDS011;6471;50.932;6.934;2022-08-30T04:25:03;1.90;;;1.60;;
12812;SDS011;6471;50.932;6.934;2022-08-30T04:27:29;1.50;;;1.40;;
12812;SDS011;6471;50.932;6.934;2022-08-30T04:29:57;1.83;;;1.40;;
12812;SDS011;6471;50.932;6.934;2022-08-30T04:32:23;1.50;;;1.30;;
12812;SDS011;6471;50.932;6.934;2022-08-30T04:34:49;2.43;;;1.60;;
12812;SDS011;6471;50.932;6.934;2022-08-30T04:37:16;1.40;;;1.30;;
12812;SDS011;6471;50.932;6.934;2022-08-30T04:39:42;1.73;;;1.50;;
12812;SDS011;6471;50.932;6.934;2022-08-30T04:42:08;1.60;;;1.30;;
12812;SDS011;6471;50.932;6.934;2022-08-30T04:44:35;1.97;;;1.57;;
12812;SDS011;6471;50.932;6.934;2022-08-30T04:47:01;1.63;;;1.53;;
12812;SDS011;6471;50.932;6.934;2022-08-30T04:49:27;1.90;;;1.70;;
12812;SDS011;6471;50.932;6.934;2022-08-30T04:51:53;1.80;;;1.50;;
12812;SDS011;6471;50.932;6.934;2022-08-30T04:54:19;1.70;;;1.50;;
12812;SDS011;6471;50.932;6.934;2022-08-30T04:56:46;2.00;;;1.53;;
12812;SDS011;6471;50.932;6.934;2022-08-30T04:59:12;1.80;;;1.50;;
12812;SDS011;6471;50.932;6.934;2022-08-30T05:01:38;1.57;;;1.47;;
12812;SDS011;6471;50.932;6.934;2022-08-30T05:04:04;1.60;;;1.50;;
12812;SDS011;6471;50.932;6.934;2022-08-30T05:06:31;1.47;;;1.30;;
12812;SDS011;6471;50.932;6.934;2022-08-30T05:08:57;2.43;;;1.60;;
12812;SDS011;6471;50.932;6.934;2022-08-30T05:11:24;2.10;;;1.63;;
12812;SDS011;6471;50.932;6.934;2022-08-30T05:13:51;1.63;;;1.40;;
12812;SDS011;6471;50.932;6.934;2022-08-30T05:16:17;2.83;;;1.80;;
12812;SDS011;6471;50.932;6.934;2022-08-30T05:18:44;1.60;;;1.40;;
12812;SDS011;6471;50.932;6.934;2022-08-30T05:21:11;1.80;;;1.50;;
12812;SDS011;6471;50.932;6.934;2022-08-30T05:23:38;3.00;;;1.57;;
12812;SDS011;6471;50.932;6.934;2022-08-30T05:26:11;2.10;;;1.70;;
12812;SDS011;6471;50.932;6.934;2022-08-30T05:28:38;1.80;;;1.60;;
12812;SDS011;6471;50.932;6.934;2022-08-30T05:31:38;2.50;;;1.73;;
12812;SDS011;6471;50.932;6.934;2022-08-30T05:33:57;2.13;;;1.73;;
12812;SDS011;6471;50.932;6.934;2022-08-30T05:36:24;2.07;;;1.50;;
12812;SDS011;6471;50.932;6.934;2022-08-30T05:38:51;2.23;;;1.70;;
12812;SDS011;6471;50.932;6.934;2022-08-30T05:41:18;2.00;;;1.67;;
12812;SDS011;6471;50.932;6.934;2022-08-30T05:43:44;2.10;;;1.63;;
12812;SDS011;6471;50.932;6.934;2022-08-30T05:46:12;3.00;;;1.80;;
12812;SDS011;6471;50.932;6.934;2022-08-30T05:48:38;2.27;;;1.73;;
12812;SDS011;6471;50.932;6.934;2022-08-30T05:51:10;2.17;;;1.60;;
12812;SDS011;6471;50.932;6.934;2022-08-30T05:53:37;3.50;;;1.97;;
12812;SDS011;6471;50.932;6.934;2022-08-30T05:56:04;2.17;;;1.90;;
12812;SDS011;6471;50.932;6.934;2022-08-30T05:58:31;2.53;;;1.80;;
12812;SDS011;6471;50.932;6.934;2022-08-30T06:00:57;2.40;;;1.70;;
12812;SDS011;6471;50.932;6.934;2022-08-30T06:03:23;2.47;;;1.90;;
12812;SDS011;6471;50.932;6.934;2022-08-30T06:05:50;2.07;;;1.77;;
12812;SDS011;6471;50.932;6.934;2022-08-30T06:08:16;2.17;;;1.77;;
12812;SDS011;6471;50.932;6.934;2022-08-30T06:10:42;2.43;;;2.07;;
12812;SDS011;6471;50.932;6.934;2022-08-30T06:13:08;4.10;;;2.20;;
12812;SDS011;6471;50.932;6.934;2022-08-30T06:15:35;2.63;;;2.00;;
12812;SDS011;6471;50.932;6.934;2022-08-30T06:18:01;2.00;;;1.80;;
12812;SDS011;6471;50.932;6.934;2022-08-30T06:20:27;2.57;;;1.83;;
12812;SDS011;6471;50.932;6.934;2022-08-30T06:22:53;2.53;;;2.00;;
12812;SDS011;6471;50.932;6.934;2022-08-30T06:25:19;3.23;;;2.00;;
12812;SDS011;6471;50.932;6.934;2022-08-30T06:27:45;3.87;;;2.50;;
12812;SDS011;6471;50.932;6.934;2022-08-30T06:30:11;4.27;;;2.40;;
12812;SDS011;6471;50.932;6.934;2022-08-30T06:32:38;3.17;;;2.00;;
12812;SDS011;6471;50.932;6.934;2022-08-30T06:35:04;2.43;;;2.00;;
12812;SDS011;6471;50.932;6.934;2022-08-30T06:37:31;3.83;;;2.00;;
12812;SDS011;6471;50.932;6.934;2022-08-30T06:39:58;2.83;;;2.10;;
12812;SDS011;6471;50.932;6.934;2022-08-30T06:42:25;5.30;;;2.20;;
12812;SDS011;6471;50.932;6.934;2022-08-30T06:45:03;3.33;;;2.10;;
12812;SDS011;6471;50.932;6.934;2022-08-30T06:47:29;3.03;;;2.30;;
12812;SDS011;6471;50.932;6.934;2022-08-30T07:09:47;3.20;;;2.10;;
12812;SDS011;6471;50.932;6.934;2022-08-30T07:12:34;2.50;;;2.00;;
12812;SDS011;6471;50.932;6.934;2022-08-30T07:15:20;5.57;;;2.47;;
12812;SDS011;6471;50.932;6.934;2022-08-30T07:17:49;3.30;;;2.53;;
12812;SDS011;6471;50.932;6.934;2022-08-30T07:20:36;3.43;;;2.20;;
12812;SDS011;6471;50.932;6.934;2022-08-30T07:23:04;3.40;;;2.30;;
12812;SDS011;6471;50.932;6.934;2022-08-30T07:25:30;2.63;;;2.10;;
12812;SDS011;6471;50.932;6.934;2022-08-30T07:27:59;2.30;;;1.90;;
12812;SDS011;6471;50.932;6.934;2022-08-30T07:30:29;2.27;;;1.90;;
12812;SDS011;6471;50.932;6.934;2022-08-30T07:32:56;2.10;;;1.80;;
12812;SDS011;6471;50.932;6.934;2022-08-30T07:35:27;3.53;;;2.10;;
12812;SDS011;6471;50.932;6.934;2022-08-30T07:37:56;2.10;;;1.90;;
12812;SDS011;6471;50.932;6.934;2022-08-30T07:40:23;2.87;;;2.03;;
12812;SDS011;6471;50.932;6.934;2022-08-30T07:42:49;3.57;;;2.13;;
12812;SDS011;6471;50.932;6.934;2022-08-30T07:45:15;2.13;;;1.93;;
12812;SDS011;6471;50.932;6.934;2022-08-30T07:47:47;2.80;;;2.00;;
12812;SDS011;6471;50.932;6.934;2022-08-30T07:50:16;2.30;;;2.10;;
12812;SDS011;6471;50.932;6.934;2022-08-30T07:52:42;2.23;;;1.80;;
12812;SDS011;6471;50.932;6.934;2022-08-30T07:55:08;3.50;;;2.00;;
12812;SDS011;6471;50.932;6.934;2022-08-30T07:57:35;2.50;;;1.80;;
12812;SDS011;6471;50.932;6.934;2022-08-30T08:00:01;3.87;;;2.20;;
12812;SDS011;6471;50.932;6.934;2022-08-30T08:02:28;2.50;;;2.10;;
12812;SDS011;6471;50.932;6.934;2022-08-30T08:05:03;2.63;;;2.27;;
12812;SDS011;6471;50.932;6.934;2022-08-30T08:07:30;3.70;;;2.47;;
12812;SDS011;6471;50.932;6.934;2022-08-30T08:10:14;3.77;;;2.40;;
12812;SDS011;6471;50.932;6.934;2022-08-30T08:12:41;2.87;;;2.00;;
12812;SDS011;6471;50.932;6.934;2022-08-30T08:15:28;2.90;;;2.10;;
12812;SDS011;6471;50.932;6.934;2022-08-30T08:17:57;2.37;;;1.90;;
12812;SDS011;6471;50.932;6.934;2022-08-30T08:20:26;3.60;;;2.10;;
12812;SDS011;6471;50.932;6.934;2022-08-30T08:22:57;3.27;;;2.10;;
12812;SDS011;6471;50.932;6.934;2022-08-30T08:25:24;2.20;;;1.83;;
12812;SDS011;6471;50.932;6.934;2022-08-30T08:27:53;3.83;;;2.00;;
12812;SDS011;6471;50.932;6.934;2022-08-30T08:30:32;2.60;;;2.30;;
12812;SDS011;6471;50.932;6.934;2022-08-30T08:32:58;2.50;;;1.90;;
12812;SDS011;6471;50.932;6.934;2022-08-30T08:35:28;2.77;;;1.80;;
12812;SDS011;6471;50.932;6.934;2022-08-30T08:38:03;2.43;;;1.90;;
12812;SDS011;6471;50.932;6.934;2022-08-30T08:40:32;3.60;;;2.10;;
12812;SDS011;6471;50.932;6.934;2022-08-30T08:43:18;2.37;;;1.77;;
12812;SDS011;6471;50.932;6.934;2022-08-30T08:50:59;2.70;;;2.20;;
12812;SDS011;6471;50.932;6.934;2022-08-30T08:53:47;3.03;;;2.00;;
12812;SDS011;6471;50.932;6.934;2022-08-30T08:56:18;3.20;;;1.80;;
12812;SDS011;6471;50.932;6.934;2022-08-30T08:58:52;2.30;;;2.10;;
12812;SDS011;6471;50.932;6.934;2022-08-30T09:01:22;3.17;;;1.93;;
12812;SDS011;6471;50.932;6.934;2022-08-30T09:03:49;2.37;;;2.13;;
12812;SDS011;6471;50.932;6.934;2022-08-30T09:08:52;6.07;;;2.23;;
12812;SDS011;6471;50.932;6.934;2022-08-30T09:11:24;2.50;;;2.10;;
12812;SDS011;6471;50.932;6.934;2022-08-30T09:13:54;3.93;;;1.93;;
12812;SDS011;6471;50.932;6.934;2022-08-30T09:17:07;3.27;;;2.23;;
12812;SDS011;6471;50.932;6.934;2022-08-30T09:24:42;3.03;;;2.47;;
12812;SDS011;6471;50.932;6.934;2022-08-30T09:30:57;3.10;;;2.33;;
12812;SDS011;6471;50.932;6.934;2022-08-30T09:32:37;2.20;;;2.00;;
12812;SDS011;6471;50.932;6.934;2022-08-30T09:35:17;2.47;;;1.87;;
12812;SDS011;6471;50.932;6.934;2022-08-30T09:40:39;3.03;;;2.30;;
12812;SDS011;6471;50.932;6.934;2022-08-30T09:46:16;2.70;;;2.23;;
12812;SDS011;6471;50.932;6.934;2022-08-30T09:49:12;3.70;;;2.07;;
12812;SDS011;6471;50.932;6.934;2022-08-30T09:51:53;2.37;;;2.00;;
12812;SDS011;6471;50.932;6.934;2022-08-30T09:54:59;2.20;;;1.80;;
12812;SDS011;6471;50.932;6.934;2022-08-30T10:00:36;2.97;;;2.13;;
12812;SDS011;6471;50.932;6.934;2022-08-30T10:11:42;2.33;;;1.80;;
12812;SDS011;6471;50.932;6.934;2022-08-30T10:14:26;2.30;;;2.10;;
12812;SDS011;6471;50.932;6.934;2022-08-30T10:17:09;3.30;;;1.97;;
12812;SDS011;6471;50.932;6.934;2022-08-30T10:20:24;2.40;;;2.00;;
12812;SDS011;6471;50.932;6.934;2022-08-30T10:28:18;2.20;;;1.80;;
12812;SDS011;6471;50.932;6.934;2022-08-30T10:33:39;4.82;;;2.30;;
12812;SDS011;6471;50.932;6.934;2022-08-30T10:36:11;4.10;;;2.60;;
12812;SDS011;6471;50.932;6.934;2022-08-30T10:38:43;2.97;;;2.20;;
12812;SDS011;6471;50.932;6.934;2022-08-30T10:41:19;3.47;;;2.33;;
12812;SDS011;6471;50.932;6.934;2022-08-30T10:44:14;2.53;;;2.22;;
12812;SDS011;6471;50.932;6.934;2022-08-30T10:49:20;5.15;;;2.38;;
12812;SDS011;6471;50.932;6.934;2022-08-30T10:57:23;2.00;;;1.80;;
12812;SDS011;6471;50.932;6.934;2022-08-30T10:59:53;2.42;;;1.75;;
12812;SDS011;6471;50.932;6.934;2022-08-30T11:13:01;3.08;;;2.03;;
12812;SDS011;6471;50.932;6.934;2022-08-30T11:15:30;2.13;;;1.80;;
12812;SDS011;6471;50.932;6.934;2022-08-30T11:17:58;2.00;;;1.77;;
12812;SDS011;6471;50.932;6.934;2022-08-30T11:20:29;4.13;;;2.05;;
12812;SDS011;6471;50.932;6.934;2022-08-30T11:25:54;2.67;;;2.00;;
12812;SDS011;6471;50.932;6.934;2022-08-30T11:31:10;3.17;;;2.30;;
12812;SDS011;6471;50.932;6.934;2022-08-30T11:33:41;2.05;;;1.85;;
12812;SDS011;6471;50.932;6.934;2022-08-30T11:36:09;2.63;;;2.20;;
12812;SDS011;6471;50.932;6.934;2022-08-30T11:41:10;2.30;;;2.10;;
12812;SDS011;6471;50.932;6.934;2022-08-30T11:48:44;3.42;;;2.03;;
12812;SDS011;6471;50.932;6.934;2022-08-30T11:51:18;4.25;;;2.10;;
12812;SDS011;6471;50.932;6.934;2022-08-30T11:56:25;3.42;;;2.58;;
12812;SDS011;6471;50.932;6.934;2022-08-30T11:58:56;2.75;;;2.10;;
12812;SDS011;6471;50.932;6.934;2022-08-30T12:09:04;3.65;;;2.53;;
12812;SDS011;6471;50.932;6.934;2022-08-30T12:14:05;4.30;;;2.20;;
12812;SDS011;6471;50.932;6.934;2022-08-30T12:19:24;3.63;;;2.40;;
12812;SDS011;6471;50.932;6.934;2022-08-30T12:21:54;2.83;;;2.25;;
12812;SDS011;6471;50.932;6.934;2022-08-30T12:24:28;2.88;;;2.40;;
12812;SDS011;6471;50.932;6.934;2022-08-30T12:27:19;2.58;;;1.95;;
12812;SDS011;6471;50.932;6.934;2022-08-30T12:29:50;3.35;;;2.10;;
12812;SDS011;6471;50.932;6.934;2022-08-30T12:32:16;3.10;;;2.47;;
12812;SDS011;6471;50.932;6.934;2022-08-30T12:34:58;4.32;;;2.40;;
12812;SDS011;6471;50.932;6.934;2022-08-30T12:37:35;3.03;;;2.20;;
12812;SDS011;6471;50.932;6.934;2022-08-30T12:42:34;6.45;;;2.40;;
12812;SDS011;6471;50.932;6.934;2022-08-30T12:45:10;3.97;;;2.88;;
12812;SDS011;6471;50.932;6.934;2022-08-30T12:47:44;5.00;;;2.38;;
12812;SDS011;6471;50.932;6.934;2022-08-30T12:50:13;4.35;;;2.95;;
12812;SDS011;6471;50.932;6.934;2022-08-30T12:52:55;4.97;;;2.63;;
12812;SDS011;6471;50.932;6.934;2022-08-30T12:55:24;5.00;;;2.70;;
12812;SDS011;6471;50.932;6.934;2022-08-30T12:58:04;3.40;;;2.50;;
12812;SDS011;6471;50.932;6.934;2022-08-30T13:00:41;3.67;;;2.92;;
12812;SDS011;6471;50.932;6.934;2022-08-30T13:06:06;3.65;;;2.33;;
12812;SDS011;6471;50.932;6.934;2022-08-30T13:08:37;4.60;;;2.75;;
12812;SDS011;6471;50.932;6.934;2022-08-30T13:13:47;3.17;;;2.42;;
12812;SDS011;6471;50.932;6.934;2022-08-30T13:19:23;4.28;;;2.40;;
12812;SDS011;6471;50.932;6.934;2022-08-30T13:21:54;3.63;;;2.20;;
12812;SDS011;6471;50.932;6.934;2022-08-30T13:24:33;3.65;;;2.17;;
12812;SDS011;6471;50.932;6.934;2022-08-30T13:27:02;5.35;;;2.60;;
12812;SDS011;6471;50.932;6.934;2022-08-30T13:29:33;5.30;;;2.60;;
12812;SDS011;6471;50.932;6.934;2022-08-30T13:32:01;3.60;;;2.75;;
12812;SDS011;6471;50.932;6.934;2022-08-30T13:34:27;3.90;;;2.90;;
12812;SDS011;6471;50.932;6.934;2022-08-30T13:36:57;4.28;;;2.88;;
12812;SDS011;6471;50.932;6.934;2022-08-30T13:39:24;6.00;;;3.45;;
12812;SDS011;6471;50.932;6.934;2022-08-30T13:41:55;5.47;;;3.00;;
12812;SDS011;6471;50.932;6.934;2022-08-30T13:44:26;4.03;;;2.72;;
12812;SDS011;6471;50.932;6.934;2022-08-30T13:46:53;4.25;;;2.78;;
12812;SDS011;6471;50.932;6.934;2022-08-30T13:49:31;3.83;;;2.50;;
12812;SDS011;6471;50.932;6.934;2022-08-30T13:52:00;2.97;;;2.28;;
12812;SDS011;6471;50.932;6.934;2022-08-30T13:54:29;2.90;;;2.50;;
12812;SDS011;6471;50.932;6.934;2022-08-30T13:56:55;4.22;;;2.40;;
12812;SDS011;6471;50.932;6.934;2022-08-30T13:59:21;4.82;;;2.88;;
12812;SDS011;6471;50.932;6.934;2022-08-30T14:01:48;5.03;;;2.90;;
12812;SDS011;6471;50.932;6.934;2022-08-30T14:04:14;4.43;;;2.95;;
12812;SDS011;6471;50.932;6.934;2022-08-30T14:06:41;2.92;;;2.50;;
12812;SDS011;6471;50.932;6.934;2022-08-30T14:09:07;3.58;;;2.90;;
12812;SDS011;6471;50.932;6.934;2022-08-30T14:11:34;5.95;;;2.80;;
12812;SDS011;6471;50.932;6.934;2022-08-30T14:14:01;3.42;;;2.90;;
12812;SDS011;6471;50.932;6.934;2022-08-30T14:16:27;3.30;;;2.33;;
12812;SDS011;6471;50.932;6.934;2022-08-30T14:18:55;6.00;;;2.95;;
12812;SDS011;6471;50.932;6.934;2022-08-30T14:21:21;3.50;;;2.58;;
12812;SDS011;6471;50.932;6.934;2022-08-30T14:23:47;5.43;;;2.63;;
12812;SDS011;6471;50.932;6.934;2022-08-30T14:26:17;5.97;;;2.70;;
12812;SDS011;6471;50.932;6.934;2022-08-30T14:28:44;4.13;;;2.70;;
12812;SDS011;6471;50.932;6.934;2022-08-30T14:31:11;4.78;;;2.70;;
12812;SDS011;6471;50.932;6.934;2022-08-30T14:33:37;5.18;;;3.17;;
12812;SDS011;6471;50.932;6.934;2022-08-30T14:36:03;4.20;;;3.20;;
12812;SDS011;6471;50.932;6.934;2022-08-30T14:38:30;4.20;;;3.20;;
12812;SDS011;6471;50.932;6.934;2022-08-30T14:40:56;5.57;;;3.63;;
12812;SDS011;6471;50.932;6.934;2022-08-30T14:43:22;3.22;;;2.92;;
12812;SDS011;6471;50.932;6.934;2022-08-30T14:45:48;3.33;;;2.60;;
12812;SDS011;6471;50.932;6.934;2022-08-30T14:48:14;3.20;;;2.60;;
12812;SDS011;6471;50.932;6.934;2022-08-30T14:50:40;3.03;;;2.50;;
12812;SDS011;6471;50.932;6.934;2022-08-30T14:53:06;2.63;;;2.25;;
12812;SDS011;6471;50.932;6.934;2022-08-30T14:55:32;4.28;;;2.55;;
12812;SDS011;6471;50.932;6.934;2022-08-30T14:57:59;4.72;;;2.85;;
12812;SDS011;6471;50.932;6.934;2022-08-30T15:00:25;4.82;;;2.92;;
12812;SDS011;6471;50.932;6.934;2022-08-30T15:02:52;4.63;;;2.80;;
12812;SDS011;6471;50.932;6.934;2022-08-30T15:05:18;3.83;;;2.53;;
12812;SDS011;6471;50.932;6.934;2022-08-30T15:07:46;2.95;;;2.65;;
12812;SDS011;6471;50.932;6.934;2022-08-30T15:10:14;2.80;;;2.40;;
12812;SDS011;6471;50.932;6.934;2022-08-30T15:12:42;3.65;;;2.50;;
12812;SDS011;6471;50.932;6.934;2022-08-30T15:15:13;4.10;;;2.75;;
12812;SDS011;6471;50.932;6.934;2022-08-30T15:17:39;3.38;;;2.60;;
12812;SDS011;6471;50.932;6.934;2022-08-30T15:20:06;3.75;;;2.88;;
12812;SDS011;6471;50.932;6.934;2022-08-30T15:22:32;2.72;;;2.47;;
12812;SDS011;6471;50.932;6.934;2022-08-30T15:24:58;5.35;;;2.75;;
12812;SDS011;6471;50.932;6.934;2022-08-30T15:27:26;5.45;;;3.08;;
12812;SDS011;6471;50.932;6.934;2022-08-30T15:29:52;4.03;;;2.95;;
12812;SDS011;6471;50.932;6.934;2022-08-30T15:32:18;3.38;;;2.60;;
12812;SDS011;6471;50.932;6.934;2022-08-30T15:34:47;3.67;;;2.88;;
12812;SDS011;6471;50.932;6.934;2022-08-30T15:37:14;3.40;;;2.50;;
12812;SDS011;6471;50.932;6.934;2022-08-30T15:39:47;4.22;;;2.65;;
12812;SDS011;6471;50.932;6.934;2022-08-30T15:42:13;3.33;;;2.45;;
12812;SDS011;6471;50.932;6.934;2022-08-30T15:44:39;3.20;;;2.55;;
12812;SDS011;6471;50.932;6.934;2022-08-30T15:47:05;7.30;;;3.00;;
12812;SDS011;6471;50.932;6.934;2022-08-30T15:49:31;3.10;;;2.80;;
12812;SDS011;6471;50.932;6.934;2022-08-30T15:52:02;4.88;;;3.17;;
12812;SDS011;6471;50.932;6.934;2022-08-30T15:54:29;6.07;;;2.95;;
12812;SDS011;6471;50.932;6.934;2022-08-30T15:56:56;4.13;;;2.60;;
12812;SDS011;6471;50.932;6.934;2022-08-30T15:59:25;3.25;;;2.60;;
12812;SDS011;6471;50.932;6.934;2022-08-30T16:01:52;3.20;;;2.70;;
12812;SDS011;6471;50.932;6.934;2022-08-30T16:04:18;5.13;;;2.95;;
12812;SDS011;6471;50.932;6.934;2022-08-30T16:06:46;3.38;;;2.70;;
12812;SDS011;6471;50.932;6.934;2022-08-30T16:09:13;2.75;;;2.50;;
12812;SDS011;6471;50.932;6.934;2022-08-30T16:11:39;5.95;;;2.85;;
12812;SDS011;6471;50.932;6.934;2022-08-30T16:14:06;5.45;;;2.97;;
12812;SDS011;6471;50.932;6.934;2022-08-30T16:16:35;4.57;;;2.92;;
12812;SDS011;6471;50.932;6.934;2022-08-30T16:19:06;4.07;;;3.22;;
12812;SDS011;6471;50.932;6.934;2022-08-30T16:21:34;6.40;;;4.10;;
12812;SDS011;6471;50.932;6.934;2022-08-30T16:24:01;7.20;;;4.70;;
12812;SDS011;6471;50.932;6.934;2022-08-30T16:26:29;4.80;;;3.83;;
12812;SDS011;6471;50.932;6.934;2022-08-30T16:28:55;7.47;;;3.15;;
12812;SDS011;6471;50.932;6.934;2022-08-30T16:31:22;8.32;;;3.15;;
12812;SDS011;6471;50.932;6.934;2022-08-30T16:33:48;4.65;;;2.95;;
12812;SDS011;6471;50.932;6.934;2022-08-30T16:39:02;5.78;;;3.08;;
12812;SDS011;6471;50.932;6.934;2022-08-30T16:41:29;4.85;;;2.95;;
12812;SDS011;6471;50.932;6.934;2022-08-30T16:43:55;3.90;;;3.00;;
12812;SDS011;6471;50.932;6.934;2022-08-30T16:46:22;6.80;;;2.97;;
12812;SDS011;6471;50.932;6.934;2022-08-30T16:48:49;6.40;;;3.17;;
12812;SDS011;6471;50.932;6.934;2022-08-30T16:51:16;4.45;;;2.78;;
12812;SDS011;6471;50.932;6.934;2022-08-30T16:53:43;5.15;;;3.08;;
12812;SDS011;6471;50.932;6.934;2022-08-30T16:56:11;4.40;;;2.60;;
12812;SDS011;6471;50.932;6.934;2022-08-30T16:58:38;3.58;;;2.90;;
12812;SDS011;6471;50.932;6.934;2022-08-30T17:01:04;3.70;;;2.53;;
12812;SDS011;6471;50.932;6.934;2022-08-30T17:03:30;4.15;;;2.70;;
12812;SDS011;6471;50.932;6.934;2022-08-30T17:05:56;4.28;;;3.03;;
12812;SDS011;6471;50.932;6.934;2022-08-30T17:08:23;6.97;;;5.00;;
12812;SDS011;6471;50.932;6.934;2022-08-30T17:10:49;6.53;;;3.78;;
12812;SDS011;6471;50.932;6.934;2022-08-30T17:13:15;5.07;;;4.10;;